Time;durP1;ratioP1;P1;durP2;ratioP2;P2;SDS_P1;SDS_P2;PMS_P1;PMS_P2;Temp;Humidity;BMP_temperature;BMP_pressure;BME280_temperature;BME280_humidity;BME280_pressure;Samples;Min_cycle;Max_cycle;Signal;HPM_P1;HPM_P2
2023/01/13 00:01:11;;;;;;;15.70;7.50;;;;;;;-2.90;100.00;100374.40;104409;1265;69742;-62
2023/01/13 00:03:38;;;;;;;13.60;6.10;;;;;;;-2.91;100.00;100377.13;104288;1259;75191;-63
2023/01/13 02:09:05;;;;;;;10.10;4.60;;;;;;;-4.74;100.00;100328.92;101839;1295;615459;-61
2023/01/13 02:14:24;;;;;;;;;;;;;;;-4.04;100.00;100341.19;103758;1270;59710;-64
2023/01/13 02:17:15;;;;;;;19.00;9.40;;;;;;;-3.90;100.00;100338.13;103586;1266;71886;-62
2023/01/13 02:20:02;;;;;;;17.10;8.40;;;;;;;-3.73;100.00;100331.23;103571;1272;68945;-62
2023/01/13 02:22:51;;;;;;;12.60;7.70;;;;;;;-3.60;100.00;100322.46;103643;1279;146128;-63
2023/01/13 02:25:23;;;;;;;20.30;8.60;;;;;;;-3.50;100.00;100317.23;103791;1264;59676;-62
2023/01/13 02:28:04;;;;;;;14.80;8.30;;;;;;;-3.42;100.00;100312.81;104261;1263;60279;-63
2023/01/13 02:33:35;;;;;;;13.60;7.70;;;;;;;-3.20;100.00;100312.30;104216;1271;69142;-63
2023/01/13 02:36:21;;;;;;;16.30;8.60;;;;;;;-3.15;100.00;100305.92;104145;1261;72989;-63
2023/01/13 02:39:02;;;;;;;18.00;8.60;;;;;;;-3.10;100.00;100309.27;104193;1264;59743;-62
2023/01/13 02:44:26;;;;;;;13.80;7.80;;;;;;;-3.04;100.00;100303.23;104327;1270;71778;-61
2023/01/13 02:47:05;;;;;;;17.50;8.50;;;;;;;-2.99;100.00;100304.22;104387;1264;68668;-61
2023/01/13 02:49:40;;;;;;;18.10;8.60;;;;;;;-2.94;100.00;100303.81;104430;1266;73670;-61
2023/01/13 02:52:10;;;;;;;21.70;8.60;;;;;;;-2.93;100.00;100304.02;104335;1265;59630;-64
2023/01/13 02:54:38;;;;;;;18.50;8.80;;;;;;;-2.92;100.00;100300.92;104366;1257;59836;-61
2023/01/13 02:57:07;;;;;;;18.40;9.40;;;;;;;-2.89;100.00;100299.27;104167;1260;72101;-61
2023/01/13 02:59:34;;;;;;;18.70;8.90;;;;;;;-2.87;100.00;100295.73;104342;1260;69121;-61
2023/01/13 03:02:02;;;;;;;19.70;8.80;;;;;;;-2.82;100.00;100296.50;104340;1259;71806;-62
2023/01/13 03:04:45;;;;;;;18.40;8.50;;;;;;;-2.74;100.00;100296.87;104454;1263;59771;-62
2023/01/13 03:07:37;;;;;;;14.00;8.90;;;;;;;-2.69;100.00;100293.02;104368;1257;59631;-63
2023/01/13 03:10:10;;;;;;;17.70;9.00;;;;;;;-2.71;100.00;100296.23;104270;1253;72294;-62
2023/01/13 03:12:48;;;;;;;17.90;8.30;;;;;;;-2.72;100.00;100294.51;104386;1270;68854;-62
2023/01/13 03:15:15;;;;;;;;;;;;;;;-2.69;100.00;100292.33;104336;1267;72320;-62
2023/01/13 03:17:47;;;;;;;19.50;8.50;;;;;;;-2.67;100.00;100288.60;104447;1257;60665;-61
2023/01/13 03:20:17;;;;;;;17.90;8.90;;;;;;;-2.66;100.00;100288.63;104396;1258;60340;-62
2023/01/13 03:22:58;;;;;;;15.90;9.00;;;;;;;-2.68;100.00;100289.96;104307;1257;73838;-62
2023/01/13 03:25:28;;;;;;;17.50;8.80;;;;;;;-2.70;100.00;100294.20;104437;1264;68595;-62
2023/01/13 03:28:04;;;;;;;13.90;8.70;;;;;;;-2.70;100.00;100295.74;104398;1253;72177;-62
2023/01/13 03:30:43;;;;;;;18.30;8.80;;;;;;;-2.65;100.00;100295.00;104375;1259;60348;-62
2023/01/13 03:33:12;;;;;;;20.00;9.10;;;;;;;-2.60;100.00;100293.39;104415;1254;60056;-61
2023/01/13 03:35:40;;;;;;;16.80;9.50;;;;;;;-2.60;100.00;100293.73;104342;1257;73079;-63
2023/01/13 03:38:32;;;;;;;13.40;8.80;;;;;;;-2.61;100.00;100297.31;104239;1254;68828;-62
2023/01/13 03:41:24;;;;;;;18.60;8.80;;;;;;;-2.61;100.00;100299.02;104367;1256;72938;-62
2023/01/13 03:46:59;;;;;;;19.20;10.20;;;;;;;-2.53;100.00;100301.76;104417;1257;59746;-62
2023/01/13 03:49:34;;;;;;;22.40;9.40;;;;;;;-2.55;100.00;100301.89;104305;1258;72557;-63
2023/01/13 03:52:05;;;;;;;22.80;10.40;;;;;;;-2.58;100.00;100296.16;104362;1254;68575;-63
2023/01/13 03:54:33;;;;;;;16.80;8.70;;;;;;;-2.63;100.00;100298.45;104379;1257;72360;-61
2023/01/13 03:57:06;;;;;;;14.40;9.00;;;;;;;-2.59;100.00;100296.66;104243;1274;60549;-63
2023/01/13 03:59:37;;;;;;;21.30;9.70;;;;;;;-2.53;100.00;100300.39;104464;1256;59631;-63
2023/01/13 04:02:09;;;;;;;17.50;9.10;;;;;;;-2.49;100.00;100295.33;104460;1264;72532;-64
2023/01/13 04:04:40;;;;;;;16.40;9.20;;;;;;;-2.47;100.00;100296.22;104267;1257;68727;-63
2023/01/13 04:07:39;;;;;;;15.30;8.00;;;;;;;-2.50;100.00;100292.22;104350;1271;71896;-63
2023/01/13 04:10:08;;;;;;;18.60;9.50;;;;;;;-2.54;100.00;100290.07;104386;1257;60385;-64
2023/01/13 04:12:59;;;;;;;19.20;9.70;;;;;;;-2.55;100.00;100289.55;104415;1259;59333;-62
2023/01/13 04:15:35;;;;;;;21.50;9.70;;;;;;;-2.56;100.00;100285.92;104344;1257;73309;-63
2023/01/13 04:18:29;;;;;;;19.70;9.40;;;;;;;-2.56;100.00;100288.48;104506;1268;69219;-63
2023/01/13 04:20:58;;;;;;;16.90;8.90;;;;;;;-2.57;100.00;100287.95;104299;1257;72050;-63
2023/01/13 04:23:24;;;;;;;19.60;8.70;;;;;;;-2.56;100.00;100289.00;104423;1260;60177;-63
2023/01/13 04:25:52;;;;;;;16.20;9.50;;;;;;;-2.56;100.00;100291.76;104271;1257;59754;-63
2023/01/13 04:28:19;;;;;;;17.10;8.80;;;;;;;-2.55;100.00;100290.23;104319;1254;73105;-64
2023/01/13 04:30:46;;;;;;;24.30;8.60;;;;;;;-2.55;100.00;100291.27;104366;1254;68791;-62
2023/01/13 04:33:14;;;;;;;20.70;9.40;;;;;;;-2.53;100.00;100293.86;104365;1262;72025;-61
2023/01/13 04:35:42;;;;;;;;;;;;;;;-2.50;100.00;100295.98;104304;1260;59859;-61
2023/01/13 04:38:11;;;;;;;16.40;7.80;;;;;;;-2.52;100.00;100296.65;106453;1254;59356;-66
2023/01/13 04:40:38;;;;;;;13.90;8.00;;;;;;;-2.50;100.00;100298.91;104415;1263;73148;-60
2023/01/13 04:43:05;;;;;;;14.10;9.30;;;;;;;-2.48;100.00;100294.84;104403;1256;69025;-59
2023/01/13 04:45:33;;;;;;;15.40;8.40;;;;;;;-2.46;100.00;100293.84;104261;1257;72383;-59
2023/01/13 04:48:00;;;;;;;16.50;9.60;;;;;;;-2.45;100.00;100293.86;104278;1255;60446;-59
2023/01/13 04:50:27;;;;;;;19.20;9.40;;;;;;;-2.47;100.00;100296.23;104310;1259;59770;-60
2023/01/13 04:52:54;;;;;;;15.00;9.30;;;;;;;-2.51;100.00;100298.54;104255;1277;72160;-59
2023/01/13 04:55:21;;;;;;;18.40;9.50;;;;;;;-2.49;100.00;100302.52;104360;1259;68365;-59
2023/01/13 04:57:48;;;;;;;;;;;;;;;-2.39;100.00;100299.99;104312;1267;72233;-60
2023/01/13 05:00:17;;;;;;;17.60;8.60;;;;;;;-2.40;100.00;100300.15;104311;1259;60329;-60
2023/01/13 05:02:44;;;;;;;14.70;8.60;;;;;;;-2.41;100.00;100299.26;104378;1267;60149;-60
2023/01/13 05:05:11;;;;;;;12.80;8.10;;;;;;;-2.43;100.00;100300.41;104305;1259;73047;-59
2023/01/13 05:07:40;;;;;;;13.80;8.80;;;;;;;-2.41;100.00;100297.53;104294;1261;69225;-59
2023/01/13 05:10:08;;;;;;;14.00;7.30;;;;;;;-2.36;100.00;100298.84;104267;1257;72880;-59
2023/01/13 05:18:06;;;;;;;13.20;8.00;;;;;;;-2.43;100.00;100305.92;104378;1258;73726;-59
2023/01/13 05:20:33;;;;;;;11.30;7.10;;;;;;;-2.46;100.00;100308.09;104253;1259;68318;-59
2023/01/13 05:25:46;;;;;;;16.20;8.50;;;;;;;-2.42;100.00;100308.52;104437;1257;60829;-60
2023/01/13 05:28:13;;;;;;;13.10;7.10;;;;;;;-2.36;100.00;100308.13;104140;1275;59727;-59
2023/01/13 05:30:45;;;;;;;12.10;7.90;;;;;;;-2.36;100.00;100310.70;104312;1269;75439;-59
2023/01/13 05:33:13;;;;;;;13.90;7.90;;;;;;;-2.36;100.00;100309.33;104346;1258;69872;-60
2023/01/13 05:35:41;;;;;;;13.40;7.30;;;;;;;-2.40;100.00;100308.23;104262;1257;71344;-59
2023/01/13 05:38:08;;;;;;;14.30;7.90;;;;;;;-2.38;100.00;100309.81;104337;1260;60319;-59
2023/01/13 05:43:26;;;;;;;14.80;7.70;;;;;;;-2.28;100.00;100312.57;104366;1263;72434;-60
2023/01/13 05:45:56;;;;;;;14.70;7.30;;;;;;;-2.27;100.00;100313.28;104284;1275;69099;-60
2023/01/13 05:48:37;;;;;;;14.50;8.00;;;;;;;-2.29;100.00;100310.67;104281;1261;71817;-60
2023/01/13 05:51:05;;;;;;;14.70;7.60;;;;;;;-2.24;100.00;100310.24;104377;1257;60391;-59
2023/01/13 05:53:33;;;;;;;15.70;8.50;;;;;;;-2.16;100.00;100311.61;104363;1259;60476;-59
2023/01/13 05:56:04;;;;;;;13.80;9.10;;;;;;;-2.14;100.00;100314.58;104280;1267;72529;-59
2023/01/13 05:58:32;;;;;;;11.80;7.60;;;;;;;-2.18;100.00;100311.40;104377;1259;68914;-59
2023/01/13 06:01:03;;;;;;;9.30;6.80;;;;;;;-2.24;100.00;100311.80;104323;1259;71582;-60
2023/01/13 06:03:32;;;;;;;15.30;7.60;;;;;;;-2.24;100.00;100314.71;104301;1257;60619;-60
2023/01/13 06:24:17;;;;;;;13.90;8.90;;;;;;;-3.47;100.00;100336.66;102414;1281;613625;-61
2023/01/13 06:26:45;;;;;;;12.90;8.50;;;;;;;-3.06;100.00;100348.13;103588;1265;60919;-59
2023/01/13 06:29:13;;;;;;;14.50;10.10;;;;;;;-2.88;100.00;100341.50;103645;1269;59364;-58
2023/01/13 06:31:40;;;;;;;14.60;9.40;;;;;;;-2.76;100.00;100336.80;103856;1271;71335;-57
2023/01/13 06:34:12;;;;;;;16.20;9.90;;;;;;;-2.70;100.00;100337.28;103622;1268;68628;-57
2023/01/13 06:36:42;;;;;;;17.50;9.80;;;;;;;-2.65;100.00;100334.11;103655;1266;234262;-61
2023/01/13 06:39:09;;;;;;;16.50;8.70;;;;;;;-2.62;100.00;100328.71;103928;1266;62221;-60
2023/01/13 06:44:42;;;;;;;18.80;8.80;;;;;;;-2.41;100.00;100330.69;103345;1272;72169;-60
2023/01/13 06:47:09;;;;;;;15.20;8.90;;;;;;;-2.37;100.00;100322.70;104151;1262;68945;-60
2023/01/13 06:49:36;;;;;;;13.70;9.20;;;;;;;-2.35;100.00;100324.30;104244;1261;71819;-61
2023/01/13 06:52:06;;;;;;;18.30;9.10;;;;;;;-2.31;100.00;100326.24;104257;1263;60961;-64
2023/01/13 06:54:33;;;;;;;11.20;8.20;;;;;;;-2.24;100.00;100326.56;104206;1262;59756;-65
2023/01/13 06:57:02;;;;;;;15.90;8.50;;;;;;;-2.11;100.00;100328.89;104214;1261;72183;-64
2023/01/13 06:59:33;;;;;;;11.50;8.60;;;;;;;-2.07;100.00;100327.08;104379;1255;68954;-64
2023/01/13 07:02:00;;;;;;;14.40;9.10;;;;;;;-2.06;100.00;100329.15;104279;1262;71730;-66
2023/01/13 07:04:28;;;;;;;18.90;11.50;;;;;;;-2.06;100.00;100332.92;104243;1254;60179;-64
2023/01/13 07:06:55;;;;;;;22.70;11.30;;;;;;;-2.06;100.00;100335.67;104223;1262;59597;-66
2023/01/13 07:09:23;;;;;;;20.20;10.80;;;;;;;-2.00;100.00;100329.27;104263;1260;72250;-62
2023/01/13 07:11:51;;;;;;;21.90;11.60;;;;;;;-1.91;100.00;100328.23;104288;1259;69139;-65
2023/01/13 07:17:04;;;;;;;19.30;10.60;;;;;;;-1.91;100.00;100330.29;104302;1260;60423;-63
2023/01/13 07:19:32;;;;;;;20.10;11.70;;;;;;;-1.95;100.00;100329.71;104281;1257;61681;-63
2023/01/13 07:22:00;;;;;;;19.50;9.90;;;;;;;-1.97;100.00;100329.84;104297;1259;72173;-64
2023/01/13 07:24:27;;;;;;;15.00;9.80;;;;;;;-1.89;100.00;100336.33;104247;1260;68491;-60
2023/01/13 07:26:54;;;;;;;15.90;10.40;;;;;;;-1.83;100.00;100329.41;104219;1257;72916;-62
2023/01/13 07:29:21;;;;;;;19.30;10.90;;;;;;;-1.83;100.00;100327.19;104230;1260;59760;-61
2023/01/13 07:31:48;;;;;;;18.50;10.10;;;;;;;-1.84;100.00;100326.80;104332;1260;59679;-64
2023/01/13 07:34:17;;;;;;;16.50;9.80;;;;;;;-1.82;100.00;100329.80;104276;1260;72279;-64
2023/01/13 07:36:44;;;;;;;24.70;11.10;;;;;;;-1.76;100.00;100333.15;104351;1256;69081;-64
2023/01/13 07:39:10;;;;;;;17.90;11.10;;;;;;;-1.67;100.00;100334.16;104203;1267;72424;-64
2023/01/13 07:44:26;;;;;;;17.00;10.60;;;;;;;-1.59;100.00;100328.48;104326;1260;59736;-65
2023/01/13 07:46:53;;;;;;;14.90;9.60;;;;;;;-1.57;100.00;100330.92;104270;1278;72361;-66
2023/01/13 07:49:20;;;;;;;20.10;11.20;;;;;;;-1.58;100.00;100331.58;104360;1257;68453;-64
2023/01/13 07:51:48;;;;;;;17.40;9.90;;;;;;;-1.53;100.00;100337.33;104267;1256;73648;-63
2023/01/13 07:54:15;;;;;;;19.00;10.30;;;;;;;-1.45;100.00;100336.78;104218;1260;60161;-65
2023/01/13 07:56:43;;;;;;;16.40;9.90;;;;;;;-1.46;100.00;100337.80;104164;1257;59644;-63
2023/01/13 07:59:10;;;;;;;;;;;;;;;-1.47;100.00;100339.52;104420;1262;73439;-62
2023/01/13 08:01:37;;;;;;;15.90;9.30;;;;;;;-1.53;100.00;100340.08;104266;1260;69037;-60
2023/01/13 08:04:04;;;;;;;13.00;8.20;;;;;;;-1.56;100.00;100346.75;104306;1260;72357;-59
2023/01/13 08:06:32;;;;;;;;;;;;;;;-1.51;100.00;100348.71;104002;1260;61170;-59
2023/01/13 08:09:00;;;;;;;14.70;8.70;;;;;;;-1.48;100.00;100347.05;104427;1260;59821;-58
2023/01/13 08:15:23;;;;;;;10.20;7.40;;;;;;;-1.46;100.00;100334.70;104176;1263;69362;-66
2023/01/13 08:17:50;;;;;;;13.40;8.70;;;;;;;-1.46;100.00;100331.77;104043;1260;72155;-65
2023/01/13 08:20:17;;;;;;;9.30;5.70;;;;;;;-1.40;100.00;100327.23;104123;1259;60453;-65
2023/01/13 10:36:11;;;;;;;4.90;3.70;;;;;;;-2.89;100.00;100261.70;102355;1289;600821;-65
2023/01/13 10:38:43;;;;;;;5.50;4.90;;;;;;;-2.38;100.00;100267.02;103579;1266;61571;-64
2023/01/13 10:41:19;;;;;;;8.20;6.60;;;;;;;-2.04;100.00;100258.41;103823;1267;59846;-66
2023/01/13 10:44:05;;;;;;;7.80;6.50;;;;;;;-1.76;100.00;100249.96;105459;1267;72071;-61
2023/01/13 10:46:50;;;;;;;11.30;7.60;;;;;;;-1.52;100.00;100243.29;103597;1274;69559;-59
2023/01/13 10:49:31;;;;;;;10.30;8.00;;;;;;;-1.36;100.00;100236.32;103278;1273;177101;-58
2023/01/13 10:51:59;;;;;;;7.90;6.30;;;;;;;-1.29;100.00;100236.08;103097;1289;61162;-61
2023/01/13 10:54:26;;;;;;;8.10;7.20;;;;;;;-1.21;100.00;100237.23;103571;1274;61143;-60
2023/01/13 10:57:22;;;;;;;9.20;7.10;;;;;;;-1.19;100.00;100238.81;103318;1280;72110;-59
2023/01/13 10:59:52;;;;;;;9.30;7.50;;;;;;;-1.17;100.00;100238.65;103254;1273;70147;-60
2023/01/13 11:02:30;;;;;;;11.30;7.10;;;;;;;-1.20;100.00;100239.83;103271;1272;73217;-61
2023/01/13 11:05:20;;;;;;;11.90;7.60;;;;;;;-1.10;100.00;100239.63;103176;1280;61213;-63
2023/01/13 11:07:56;;;;;;;12.00;7.30;;;;;;;-1.00;100.00;100235.63;103989;1267;62090;-62
2023/01/13 11:10:30;;;;;;;7.60;6.60;;;;;;;-0.96;100.00;100231.36;103916;1273;73574;-64
2023/01/13 11:12:58;;;;;;;8.90;7.30;;;;;;;-0.99;100.00;100234.10;104073;1267;69001;-62
2023/01/13 11:15:38;;;;;;;11.20;8.10;;;;;;;-1.01;100.00;100241.63;104299;1273;72992;-62
2023/01/13 11:18:21;;;;;;;10.70;8.30;;;;;;;-1.01;100.00;100237.69;104074;1264;62354;-62
2023/01/13 11:20:48;;;;;;;11.30;8.00;;;;;;;-0.96;100.00;100235.16;104420;1261;60189;-60
2023/01/13 11:23:35;;;;;;;12.00;8.50;;;;;;;-0.96;100.00;100231.55;104198;1267;75173;-62
2023/01/13 11:26:06;;;;;;;10.60;8.40;;;;;;;-0.92;100.00;100232.11;104144;1271;68459;-62
2023/01/13 11:29:17;;;;;;;11.80;8.60;;;;;;;-0.83;100.00;100231.55;103964;1277;74090;-62
2023/01/13 11:31:50;;;;;;;12.10;7.70;;;;;;;-0.78;100.00;100233.16;104063;1278;61582;-61
2023/01/13 11:34:29;;;;;;;10.80;7.70;;;;;;;-0.81;100.00;100232.61;104066;1256;61123;-63
2023/01/13 11:37:06;;;;;;;10.50;7.70;;;;;;;-0.81;100.00;100230.71;104044;1264;74382;-62
2023/01/13 11:39:44;;;;;;;12.40;8.70;;;;;;;-0.76;100.00;100228.19;104049;1263;70991;-62
2023/01/13 11:42:20;;;;;;;;;;;;;;;-0.74;100.00;100230.63;104097;1261;74044;-65
2023/01/13 11:45:06;;;;;;;8.90;6.50;;;;;;;-0.77;100.00;100223.70;104185;1278;60430;-63
2023/01/13 11:47:34;;;;;;;8.60;7.10;;;;;;;-0.76;100.00;100230.42;103986;1266;61074;-64
2023/01/13 11:50:03;;;;;;;8.80;7.00;;;;;;;-0.68;100.00;100231.90;104081;1273;73585;-63
2023/01/13 11:53:16;;;;;;;10.20;7.30;;;;;;;-0.62;100.00;100235.95;103969;1279;69270;-64
2023/01/13 11:56:26;;;;;;;8.10;7.30;;;;;;;-0.61;100.00;100230.10;104293;1261;73477;-61
2023/01/13 11:59:22;;;;;;;12.30;8.70;;;;;;;-0.60;100.00;100221.84;104131;1257;63588;-59
2023/01/13 12:01:52;;;;;;;11.80;7.10;;;;;;;-0.60;100.00;100223.41;104498;1261;62407;-60
2023/01/13 12:04:40;;;;;;;9.40;7.30;;;;;;;-0.61;100.00;100223.56;104662;1258;75484;-59
2023/01/13 12:07:15;;;;;;;12.50;7.40;;;;;;;-0.67;100.00;100227.60;104296;1254;72104;-61
2023/01/13 12:09:55;;;;;;;15.00;10.20;;;;;;;-0.76;100.00;100228.36;104151;1276;73674;-60
2023/01/13 12:12:42;;;;;;;17.80;12.70;;;;;;;-0.80;100.00;100229.69;104735;1257;61771;-60
2023/01/13 12:15:21;;;;;;;19.50;12.40;;;;;;;-0.81;100.00;100234.84;104064;1263;62493;-62
2023/01/13 12:18:20;;;;;;;14.20;10.20;;;;;;;-0.76;100.00;100237.99;104152;1260;73722;-63
2023/01/13 12:20:53;;;;;;;11.90;9.10;;;;;;;-0.75;100.00;100238.71;103932;1262;71365;-63
2023/01/13 12:23:52;;;;;;;10.10;8.00;;;;;;;-0.72;100.00;100236.16;104150;1261;75689;-63
2023/01/13 12:26:20;;;;;;;11.60;9.30;;;;;;;-0.71;100.00;100237.71;104189;1257;62415;-62
2023/01/13 12:28:51;;;;;;;10.50;8.40;;;;;;;-0.72;100.00;100241.33;103961;1264;60266;-62
2023/01/13 12:31:19;;;;;;;10.80;8.70;;;;;;;-0.71;100.00;100245.30;103880;1261;73197;-61
2023/01/13 12:33:50;;;;;;;12.50;9.40;;;;;;;-0.72;100.00;100240.64;103885;1279;71568;-59
2023/01/13 12:36:40;;;;;;;9.70;8.20;;;;;;;-0.73;100.00;100239.42;104242;1263;74817;-60
2023/01/13 12:39:38;;;;;;;10.30;7.90;;;;;;;-0.73;100.00;100233.91;104134;1263;60986;-59
2023/01/13 12:45:24;;;;;;;9.60;7.40;;;;;;;-0.77;100.00;100227.30;104343;1273;74110;-58
2023/01/13 12:47:53;;;;;;;11.40;7.80;;;;;;;-0.75;100.00;100219.42;104415;1257;69484;-58
2023/01/13 12:50:21;;;;;;;9.20;7.40;;;;;;;-0.69;100.00;100218.98;104399;1261;73871;-58
2023/01/13 12:52:49;;;;;;;12.70;8.60;;;;;;;-0.62;100.00;100222.51;104095;1269;59856;-58
2023/01/13 12:55:19;;;;;;;12.10;8.70;;;;;;;-0.62;100.00;100217.86;104540;1258;61862;-59
2023/01/13 12:58:09;;;;;;;8.90;7.40;;;;;;;-0.65;100.00;100224.87;104587;1257;73588;-59
2023/01/13 13:00:38;;;;;;;11.40;8.60;;;;;;;-0.69;100.00;100227.93;104744;1260;70326;-60
2023/01/13 13:03:10;;;;;;;11.20;7.90;;;;;;;-0.67;100.00;100225.20;104288;1261;74613;-58
2023/01/13 13:06:08;;;;;;;14.50;8.80;;;;;;;-0.60;100.00;100226.51;104413;1257;59749;-59
2023/01/13 13:08:49;;;;;;;12.50;9.00;;;;;;;-0.54;100.00;100229.15;104264;1260;59599;-59
2023/01/13 13:14:38;;;;;;;10.60;8.00;;;;;;;-0.53;100.00;100225.70;103994;1264;71544;-57
2023/01/13 13:17:28;;;;;;;12.80;8.80;;;;;;;-0.58;100.00;100219.97;103928;1262;74237;-59
2023/01/13 13:19:56;;;;;;;10.30;8.10;;;;;;;-0.53;100.00;100213.31;103983;1260;61774;-59
2023/01/13 13:22:34;;;;;;;10.50;8.50;;;;;;;-0.45;100.00;100218.40;103920;1273;63128;-59
2023/01/13 13:25:01;;;;;;;10.50;8.10;;;;;;;-0.43;100.00;100224.11;104043;1264;74558;-58
2023/01/13 13:27:49;;;;;;;11.40;8.60;;;;;;;-0.44;100.00;100224.97;104028;1257;69587;-58
2023/01/13 13:30:27;;;;;;;;;;;;;;;-0.46;100.00;100228.55;104144;1269;74822;-58
2023/01/13 13:33:26;;;;;;;10.00;7.50;;;;;;;-0.53;100.00;100231.23;103956;1263;59614;-59
2023/01/13 13:36:02;;;;;;;12.30;7.80;;;;;;;-0.56;100.00;100228.94;104045;1258;60385;-59
2023/01/13 13:47:37;;;;;;;14.10;8.30;;;;;;;-0.37;100.00;100224.34;103896;1258;59760;-59
2023/01/13 13:50:13;;;;;;;11.30;8.30;;;;;;;-0.38;100.00;100227.77;104001;1260;63230;-61
2023/01/13 13:52:53;;;;;;;12.20;8.90;;;;;;;-0.38;100.00;100221.73;104050;1258;75984;-59
2023/01/13 13:55:24;;;;;;;11.80;9.00;;;;;;;-0.33;100.00;100227.48;104055;1258;69670;-58
2023/01/13 13:57:53;;;;;;;12.90;8.90;;;;;;;-0.26;100.00;100223.09;104021;1264;72203;-60
2023/01/13 14:00:25;;;;;;;13.10;9.30;;;;;;;-0.23;100.00;100225.17;104007;1265;60421;-60
2023/01/13 14:02:57;;;;;;;11.60;8.80;;;;;;;-0.23;100.00;100227.95;103948;1258;61989;-59
2023/01/13 14:05:34;;;;;;;12.90;9.20;;;;;;;-0.23;100.00;100228.63;104042;1256;75460;-59
2023/01/13 14:08:12;;;;;;;15.40;9.60;;;;;;;-0.24;100.00;100229.13;103886;1278;70136;-59
2023/01/13 14:10:40;;;;;;;13.40;9.50;;;;;;;-0.20;100.00;100230.73;103869;1262;73939;-59
2023/01/13 14:13:24;;;;;;;12.30;9.20;;;;;;;-0.14;100.00;100229.75;103981;1278;61284;-59
2023/01/13 14:16:05;;;;;;;13.60;9.10;;;;;;;-0.10;100.00;100228.06;104228;1264;61683;-59
2023/01/13 14:18:46;;;;;;;12.60;10.30;;;;;;;-0.09;100.00;100229.45;104378;1257;74416;-59
2023/01/13 14:21:25;;;;;;;13.50;9.10;;;;;;;-0.06;100.00;100233.63;104328;1258;71908;-59
2023/01/13 14:23:54;;;;;;;12.90;8.10;;;;;;;-0.07;100.00;100228.09;104305;1257;72780;-60
2023/01/13 14:26:30;;;;;;;12.30;9.00;;;;;;;-0.07;100.00;100231.55;103983;1278;62069;-58
2023/01/13 19:50:34;;;;;;;9.30;6.70;;;;;;;-3.41;100.00;100221.11;103990;1289;601827;-62
2023/01/13 19:53:01;;;;;;;13.90;10.30;;;;;;;-2.89;100.00;100231.87;103459;1275;61444;-63
2023/01/13 19:55:30;;;;;;;14.90;9.90;;;;;;;-2.67;100.00;100224.92;103420;1270;59926;-62
2023/01/13 19:57:57;;;;;;;17.20;12.40;;;;;;;-2.50;100.00;100220.79;103423;1270;73367;-62
2023/01/13 20:00:25;;;;;;;16.30;12.60;;;;;;;-2.35;100.00;100218.33;103390;1273;69559;-62
2023/01/13 20:02:52;;;;;;;17.60;12.80;;;;;;;-2.24;100.00;100217.51;103233;1276;246194;-61
2023/01/13 20:05:21;;;;;;;16.50;12.10;;;;;;;-2.17;100.00;100215.06;103374;1269;63167;-62
2023/01/13 20:07:48;;;;;;;15.50;12.00;;;;;;;-2.12;100.00;100207.24;103437;1272;62753;-63
2023/01/13 20:10:17;;;;;;;16.90;12.70;;;;;;;-2.05;100.00;100201.35;103498;1267;72664;-61
2023/01/13 20:12:44;;;;;;;14.60;11.50;;;;;;;-1.97;100.00;100198.05;103407;1272;71130;-60
2023/01/13 20:15:11;;;;;;;13.50;10.60;;;;;;;-1.87;100.00;100193.75;103373;1273;72204;-62
2023/01/13 20:17:40;;;;;;;16.00;11.60;;;;;;;-1.79;100.00;100198.00;103406;1273;61275;-62
2023/01/13 20:20:08;;;;;;;14.70;10.90;;;;;;;-1.77;100.00;100202.67;103441;1267;61918;-62
2023/01/13 20:22:37;;;;;;;16.80;11.30;;;;;;;-1.76;100.00;100203.39;103489;1266;74094;-60
2023/01/13 20:25:05;;;;;;;16.50;11.30;;;;;;;-1.71;100.00;100207.94;103318;1268;71337;-61
2023/01/13 20:27:32;;;;;;;;;;;;;;;-1.62;100.00;100203.59;103389;1269;75340;-61
2023/01/13 20:29:59;;;;;;;14.00;10.50;;;;;;;-1.65;100.00;100204.92;103437;1275;61944;-61
2023/01/13 20:32:26;;;;;;;15.70;11.30;;;;;;;-1.62;100.00;100201.02;103391;1266;60233;-62
2023/01/13 20:34:53;;;;;;;11.10;8.30;;;;;;;-1.62;100.00;100196.71;103501;1270;73527;-61
2023/01/13 20:37:21;;;;;;;16.10;10.00;;;;;;;-1.57;100.00;100198.35;103468;1278;69765;-61
2023/01/13 20:39:48;;;;;;;15.30;11.20;;;;;;;-1.51;100.00;100199.80;103419;1272;73933;-60
2023/01/13 20:42:28;;;;;;;15.30;11.30;;;;;;;-1.47;100.00;100200.39;103402;1267;60269;-61
2023/01/13 20:44:56;;;;;;;14.40;10.60;;;;;;;-1.45;100.00;100206.43;103345;1266;59736;-61
2023/01/13 20:47:23;;;;;;;;;;;;;;;-1.48;100.00;100210.52;103323;1272;73731;-62
2023/01/13 20:49:50;;;;;;;;;;;;;;;-1.51;100.00;100205.65;103421;1268;71365;-61
2023/01/13 20:52:18;;;;;;;14.70;10.00;;;;;;;-1.51;100.00;100203.41;103495;1283;71998;-61
2023/01/13 20:54:45;;;;;;;14.50;9.80;;;;;;;-1.45;100.00;100211.94;103482;1268;60251;-60
2023/01/13 20:57:12;;;;;;;10.90;8.00;;;;;;;-1.42;100.00;100215.59;103500;1273;63183;-60
2023/01/13 20:59:39;;;;;;;17.40;10.60;;;;;;;-1.44;100.00;100216.94;103466;1268;73163;-60
2023/01/13 21:02:11;;;;;;;18.10;11.70;;;;;;;-1.49;100.00;100219.61;103407;1271;69354;-59
2023/01/13 21:04:38;;;;;;;15.30;10.30;;;;;;;-1.43;100.00;100227.45;103452;1269;75025;-60
2023/01/13 21:07:05;;;;;;;16.80;11.70;;;;;;;-1.36;100.00;100226.17;103195;1288;59826;-60
2023/01/13 21:09:33;;;;;;;17.10;11.50;;;;;;;-1.37;100.00;100221.69;103868;1265;62138;-60
2023/01/13 21:20:17;;;;;;;16.90;11.40;;;;;;;-1.36;100.00;100232.20;103849;1261;59740;-60
2023/01/13 21:22:45;;;;;;;14.00;11.00;;;;;;;-1.35;100.00;100217.08;103927;1268;60570;-60
2023/01/13 21:25:13;;;;;;;18.50;12.90;;;;;;;-1.38;100.00;100213.77;103894;1260;72965;-60
2023/01/13 21:27:42;;;;;;;18.80;12.40;;;;;;;-1.43;100.00;100224.16;104141;1265;71209;-60
2023/01/13 21:30:13;;;;;;;17.60;11.50;;;;;;;-1.38;100.00;100220.29;103911;1264;72282;-60
2023/01/13 21:32:41;;;;;;;18.90;12.50;;;;;;;-1.33;100.00;100218.65;103877;1262;60208;-60
2023/01/13 21:35:09;;;;;;;16.20;11.90;;;;;;;-1.32;100.00;100216.61;103830;1276;60917;-60
2023/01/13 21:37:37;;;;;;;15.90;11.70;;;;;;;-1.33;100.00;100218.99;103917;1272;72533;-60
2023/01/13 21:40:05;;;;;;;14.60;11.30;;;;;;;-1.40;100.00;100220.27;103910;1265;70742;-61
2023/01/13 21:48:05;;;;;;;18.20;11.10;;;;;;;-1.40;100.00;100219.23;103921;1268;61620;-63
2023/01/13 21:50:33;;;;;;;16.60;11.50;;;;;;;-1.43;100.00;100223.14;103866;1280;75551;-61
2023/01/13 21:53:00;;;;;;;19.60;12.20;;;;;;;-1.46;100.00;100218.27;103945;1265;69462;-62
